Time;durP1;ratioP1;P1;durP2;ratioP2;P2;SDS_P1;SDS_P2;PMS_P1;PMS_P2;Temp;Humidity;BMP_temperature;BMP_pressure;BME280_temperature;BME280_humidity;BME280_pressure;Samples;Min_cycle;Max_cycle;Signal;HPM_P1;HPM_P2
2021/03/24 00:00:38;;;;;;;67.63;40.50;;;;;;;;;;2049329;28;20193;-60
2021/03/24 00:01:39;;;;;;;67.37;39.40;;;;;;;;;;2049375;28;20183;-60
2021/03/24 00:02:39;;;;;;;77.03;44.30;;;;;;;;;;2049701;28;20242;-59
2021/03/24 00:03:39;;;;;;;60.17;39.67;;;;;;;;;;2049134;28;20175;-60
2021/03/24 00:04:39;;;;;;;62.73;38.57;;;;;;;;;;2049587;28;20211;-59
2021/03/24 00:05:45;;;;;;;64.47;41.47;;;;;;;;;;2040940;29;20180;-61
2021/03/24 00:06:45;;;;;;;72.83;42.40;;;;;;;;;;2040403;28;20207;-59
2021/03/24 00:07:45;;;;;;;66.57;41.93;;;;;;;;;;2048077;28;20214;-61
2021/03/24 00:08:46;;;;;;;75.93;43.20;;;;;;;;;;2048674;28;20191;-59
2021/03/24 00:09:46;;;;;;;69.20;42.43;;;;;;;;;;2049603;28;20235;-58
2021/03/24 00:10:46;;;;;;;69.40;42.23;;;;;;;;;;2049487;28;20175;-59
2021/03/24 00:11:46;;;;;;;66.80;40.00;;;;;;;;;;2040554;29;20630;-61
2021/03/24 00:12:47;;;;;;;70.33;40.87;;;;;;;;;;2033409;29;20176;-58
2021/03/24 00:13:48;;;;;;;68.63;41.17;;;;;;;;;;2040502;29;20583;-60
2021/03/24 00:14:48;;;;;;;66.33;39.90;;;;;;;;;;2050346;28;20183;-61
2021/03/24 00:15:49;;;;;;;72.63;42.67;;;;;;;;;;2050366;28;20219;-61
2021/03/24 00:16:50;;;;;;;66.50;41.83;;;;;;;;;;2049428;28;20183;-61
2021/03/24 00:17:50;;;;;;;66.33;40.73;;;;;;;;;;2049930;28;20194;-60
2021/03/24 00:18:50;;;;;;;69.83;41.23;;;;;;;;;;2073990;22;20266;-53
2021/03/24 00:19:50;;;;;;;66.87;41.67;;;;;;;;;;2079284;28;20189;-57
2021/03/24 00:20:51;;;;;;;73.73;43.63;;;;;;;;;;2073718;28;20577;-54
2021/03/24 00:21:52;;;;;;;76.73;45.40;;;;;;;;;;2073194;28;20642;-56
2021/03/24 00:22:52;;;;;;;79.93;44.93;;;;;;;;;;2070724;28;20565;-54
2021/03/24 00:23:52;;;;;;;69.20;43.60;;;;;;;;;;2070955;28;20177;-54
2021/03/24 00:24:52;;;;;;;76.10;44.93;;;;;;;;;;2071353;28;20196;-54
2021/03/24 00:25:53;;;;;;;72.23;42.90;;;;;;;;;;2079689;28;20179;-55
2021/03/24 00:26:53;;;;;;;77.10;42.00;;;;;;;;;;2079083;28;20276;-53
2021/03/24 00:27:53;;;;;;;74.20;43.73;;;;;;;;;;2070685;28;20264;-56
2021/03/24 00:28:54;;;;;;;73.13;42.37;;;;;;;;;;2072035;28;20189;-58
2021/03/24 00:29:54;;;;;;;77.27;44.30;;;;;;;;;;2074552;28;20208;-56
2021/03/24 00:30:54;;;;;;;74.47;44.17;;;;;;;;;;2070588;28;20192;-55
2021/03/24 00:31:54;;;;;;;75.43;42.57;;;;;;;;;;2071078;28;20225;-54
2021/03/24 00:32:55;;;;;;;69.20;42.83;;;;;;;;;;2070733;28;20664;-53
2021/03/24 00:33:55;;;;;;;77.83;43.40;;;;;;;;;;2070998;28;20630;-56
2021/03/24 00:34:56;;;;;;;77.83;43.50;;;;;;;;;;2072451;28;20204;-53
2021/03/24 00:35:56;;;;;;;75.33;44.50;;;;;;;;;;2072151;28;20177;-57
2021/03/24 00:36:56;;;;;;;80.70;45.37;;;;;;;;;;2073082;28;20235;-58
2021/03/24 00:37:57;;;;;;;76.33;43.70;;;;;;;;;;2070014;28;20696;-59
2021/03/24 00:38:57;;;;;;;84.23;45.93;;;;;;;;;;2073219;28;20631;-53
2021/03/24 00:39:57;;;;;;;73.33;44.37;;;;;;;;;;2072245;28;20177;-58
2021/03/24 00:40:58;;;;;;;71.97;42.97;;;;;;;;;;2078726;28;20172;-53
2021/03/24 00:41:58;;;;;;;76.97;44.83;;;;;;;;;;2078665;28;20267;-57
2021/03/24 00:42:59;;;;;;;72.47;43.83;;;;;;;;;;2080671;28;20180;-59
2021/03/24 00:43:59;;;;;;;78.17;47.03;;;;;;;;;;2069639;28;20267;-58
2021/03/24 00:44:59;;;;;;;81.20;44.47;;;;;;;;;;2072572;28;20185;-58
2021/03/24 00:45:59;;;;;;;84.57;45.03;;;;;;;;;;2071296;28;20176;-57
2021/03/24 00:47:00;;;;;;;81.37;46.03;;;;;;;;;;2072115;28;20291;-57
2021/03/24 00:48:01;;;;;;;80.87;44.57;;;;;;;;;;2073322;28;20273;-55
2021/03/24 00:49:02;;;;;;;84.77;46.47;;;;;;;;;;2073043;28;20545;-55
2021/03/24 00:50:03;;;;;;;90.03;47.80;;;;;;;;;;2069795;28;20202;-56
2021/03/24 00:51:06;;;;;;;80.37;44.23;;;;;;;;;;2063116;28;20184;-56
2021/03/24 00:52:06;;;;;;;83.97;45.00;;;;;;;;;;2064197;28;20634;-54
2021/03/24 00:53:06;;;;;;;87.97;46.67;;;;;;;;;;2080731;28;20187;-57
2021/03/24 00:54:07;;;;;;;83.57;47.57;;;;;;;;;;2077575;28;20885;-57
2021/03/24 00:55:07;;;;;;;84.30;47.57;;;;;;;;;;2074275;28;20263;-57
2021/03/24 00:56:08;;;;;;;85.10;46.17;;;;;;;;;;2080656;28;20577;-57
2021/03/24 00:57:08;;;;;;;90.33;47.63;;;;;;;;;;2080811;28;20184;-56
2021/03/24 00:58:09;;;;;;;94.03;50.13;;;;;;;;;;2071088;28;20177;-58
2021/03/24 00:59:09;;;;;;;89.50;47.47;;;;;;;;;;2072999;28;20816;-57
2021/03/24 01:00:15;;;;;;;92.80;48.43;;;;;;;;;;2071123;28;20597;-58
2021/03/24 01:01:15;;;;;;;85.93;47.77;;;;;;;;;;2070517;28;20177;-60
2021/03/24 01:02:16;;;;;;;96.17;51.33;;;;;;;;;;2072688;28;20556;-56
2021/03/24 01:03:16;;;;;;;94.13;47.50;;;;;;;;;;2073313;28;20651;-58
2021/03/24 01:04:17;;;;;;;87.50;47.50;;;;;;;;;;2070911;28;20231;-55
2021/03/24 01:05:18;;;;;;;85.03;47.10;;;;;;;;;;2073044;28;20193;-55
2021/03/24 01:06:18;;;;;;;83.70;47.50;;;;;;;;;;2072154;28;20188;-57
2021/03/24 01:07:19;;;;;;;76.27;46.50;;;;;;;;;;2069916;28;20732;-56
2021/03/24 01:08:20;;;;;;;84.07;46.57;;;;;;;;;;2072484;28;20173;-55
2021/03/24 01:09:21;;;;;;;89.43;48.33;;;;;;;;;;2070264;28;20188;-53
2021/03/24 01:10:24;;;;;;;88.57;47.93;;;;;;;;;;2070962;28;20665;-56
2021/03/24 01:11:24;;;;;;;90.60;48.70;;;;;;;;;;2072942;28;20653;-56
2021/03/24 01:12:24;;;;;;;84.80;47.73;;;;;;;;;;2070780;28;20189;-58
2021/03/24 01:13:25;;;;;;;85.87;48.73;;;;;;;;;;2070781;28;20177;-55
2021/03/24 01:14:25;;;;;;;84.03;48.70;;;;;;;;;;2071910;28;20657;-54
2021/03/24 01:15:25;;;;;;;92.23;47.17;;;;;;;;;;2070699;28;20193;-56
2021/03/24 01:16:26;;;;;;;87.10;48.00;;;;;;;;;;2079168;28;20207;-55
2021/03/24 01:17:26;;;;;;;90.90;47.53;;;;;;;;;;2079719;28;20207;-54
2021/03/24 01:18:26;;;;;;;93.90;47.07;;;;;;;;;;2071933;28;20192;-53
2021/03/24 01:19:26;;;;;;;82.40;45.73;;;;;;;;;;2069290;28;20234;-53
2021/03/24 01:20:28;;;;;;;91.40;49.33;;;;;;;;;;2069140;28;20265;-55
2021/03/24 01:21:28;;;;;;;92.40;48.17;;;;;;;;;;2070032;28;20716;-56
2021/03/24 01:22:29;;;;;;;84.93;46.83;;;;;;;;;;2071588;28;20242;-57
2021/03/24 01:23:29;;;;;;;81.63;46.70;;;;;;;;;;2071941;28;20185;-58
2021/03/24 01:24:29;;;;;;;88.50;46.83;;;;;;;;;;2071773;28;20177;-57
2021/03/24 01:25:30;;;;;;;93.47;47.03;;;;;;;;;;2071926;28;20208;-55
2021/03/24 01:26:30;;;;;;;85.13;46.47;;;;;;;;;;2072262;28;20208;-55
2021/03/24 01:27:30;;;;;;;87.03;46.80;;;;;;;;;;2070671;28;20181;-57
2021/03/24 01:28:30;;;;;;;90.93;46.17;;;;;;;;;;2073355;28;20266;-53
2021/03/24 01:29:31;;;;;;;89.90;48.67;;;;;;;;;;2073542;28;20186;-58
2021/03/24 01:30:31;;;;;;;85.93;49.23;;;;;;;;;;2078062;28;20737;-54
2021/03/24 01:31:32;;;;;;;91.60;47.20;;;;;;;;;;2078859;28;20279;-56
2021/03/24 01:32:32;;;;;;;92.07;49.37;;;;;;;;;;2078587;28;20173;-55
2021/03/24 01:33:32;;;;;;;95.43;48.53;;;;;;;;;;2072295;28;20173;-55
2021/03/24 01:34:33;;;;;;;96.30;49.23;;;;;;;;;;2070907;28;20180;-56
2021/03/24 01:35:33;;;;;;;101.43;50.83;;;;;;;;;;2071339;28;20196;-53
2021/03/24 01:36:33;;;;;;;97.23;50.73;;;;;;;;;;2073094;28;20560;-57
2021/03/24 01:37:34;;;;;;;90.83;49.40;;;;;;;;;;2071485;28;20180;-56
2021/03/24 01:38:35;;;;;;;88.97;49.50;;;;;;;;;;2072145;28;20196;-57
2021/03/24 01:39:35;;;;;;;95.60;50.10;;;;;;;;;;2071875;28;20784;-57
2021/03/24 01:40:37;;;;;;;102.27;51.50;;;;;;;;;;2069688;28;20211;-55
2021/03/24 01:41:37;;;;;;;94.80;50.17;;;;;;;;;;2068984;28;20661;-57
2021/03/24 01:42:37;;;;;;;98.97;52.17;;;;;;;;;;2071314;28;20204;-56
2021/03/24 01:43:38;;;;;;;96.10;51.07;;;;;;;;;;2071703;28;20630;-58
2021/03/24 01:44:57;;;;;;;96.57;50.17;;;;;;;;;;2071822;28;20260;-59
2021/03/24 01:46:23;;;;;;;104.43;48.80;;;;;;;;;;2070205;28;20194;-56
2021/03/24 01:47:23;;;;;;;96.83;48.67;;;;;;;;;;2072350;28;20555;-57
2021/03/24 01:48:23;;;;;;;101.97;49.90;;;;;;;;;;2072098;28;20252;-55
2021/03/24 01:49:28;;;;;;;91.50;48.43;;;;;;;;;;2073006;28;20219;-56
2021/03/24 01:50:31;;;;;;;112.57;51.50;;;;;;;;;;2071577;28;20815;-51
2021/03/24 01:51:34;;;;;;;96.40;50.73;;;;;;;;;;2071062;28;20260;-55
2021/03/24 01:52:34;;;;;;;99.27;50.30;;;;;;;;;;2071804;28;20512;-57
2021/03/24 01:53:35;;;;;;;98.13;50.00;;;;;;;;;;2070904;28;20189;-55
2021/03/24 01:54:40;;;;;;;96.10;48.23;;;;;;;;;;2070147;28;20173;-57
2021/03/24 01:55:40;;;;;;;93.07;47.70;;;;;;;;;;2077919;28;20290;-55
2021/03/24 01:56:42;;;;;;;97.03;50.57;;;;;;;;;;2078078;28;20255;-57
2021/03/24 01:57:46;;;;;;;96.40;48.30;;;;;;;;;;2072903;28;20177;-55
2021/03/24 01:58:46;;;;;;;93.17;48.77;;;;;;;;;;2068921;28;20201;-56
2021/03/24 01:59:48;;;;;;;103.27;51.80;;;;;;;;;;2072458;28;20169;-54
2021/03/24 02:00:49;;;;;;;100.40;53.10;;;;;;;;;;2071600;28;20172;-57
2021/03/24 02:01:51;;;;;;;96.77;51.33;;;;;;;;;;2069727;28;20180;-59
2021/03/24 02:02:51;;;;;;;101.67;52.37;;;;;;;;;;2071693;28;20661;-59
2021/03/24 02:03:52;;;;;;;102.27;52.20;;;;;;;;;;2071768;28;20223;-55
2021/03/24 02:04:52;;;;;;;103.33;52.20;;;;;;;;;;2079890;28;20184;-55
2021/03/24 02:05:53;;;;;;;99.27;49.93;;;;;;;;;;2076724;28;20192;-56
2021/03/24 02:06:54;;;;;;;102.10;54.73;;;;;;;;;;2071039;28;20315;-57
2021/03/24 02:07:57;;;;;;;106.83;51.47;;;;;;;;;;2079407;28;20925;-56
2021/03/24 02:09:18;;;;;;;93.73;49.63;;;;;;;;;;2078120;28;20204;-57
2021/03/24 02:10:18;;;;;;;96.87;48.23;;;;;;;;;;2072418;28;20173;-56
2021/03/24 02:11:22;;;;;;;89.70;49.00;;;;;;;;;;2070052;28;20211;-61
2021/03/24 02:12:26;;;;;;;92.00;50.00;;;;;;;;;;2061976;28;20298;-57
2021/03/24 02:13:33;;;;;;;96.33;51.10;;;;;;;;;;2072046;28;20576;-58
2021/03/24 02:14:37;;;;;;;94.33;49.57;;;;;;;;;;2072784;28;20176;-57
2021/03/24 02:15:43;;;;;;;96.23;49.80;;;;;;;;;;2074088;28;20177;-57
2021/03/24 02:16:45;;;;;;;97.73;50.13;;;;;;;;;;2072882;28;20211;-56
2021/03/24 02:17:46;;;;;;;97.53;50.37;;;;;;;;;;2081769;28;20218;-54
2021/03/24 02:18:49;;;;;;;97.47;48.97;;;;;;;;;;2080061;28;20247;-58
2021/03/24 02:20:07;;;;;;;99.23;48.97;;;;;;;;;;2073040;28;20181;-57
2021/03/24 02:21:10;;;;;;;96.00;49.63;;;;;;;;;;2070858;28;20511;-56
2021/03/24 02:22:13;;;;;;;94.23;49.17;;;;;;;;;;2072679;28;20426;-59
2021/03/24 02:23:33;;;;;;;96.87;48.33;;;;;;;;;;2072725;28;20177;-58
2021/03/24 02:24:39;;;;;;;87.87;47.03;;;;;;;;;;2072234;28;20227;-54
2021/03/24 02:25:43;;;;;;;90.43;48.53;;;;;;;;;;2074651;28;20685;-57
2021/03/24 02:26:50;;;;;;;98.10;48.47;;;;;;;;;;2071737;28;20205;-59
2021/03/24 02:27:52;;;;;;;94.10;48.60;;;;;;;;;;2080709;28;20251;-55
2021/03/24 02:28:54;;;;;;;99.10;51.77;;;;;;;;;;2080021;28;20201;-55
2021/03/24 02:30:00;;;;;;;101.33;51.30;;;;;;;;;;2078325;28;20259;-54
2021/03/24 02:31:00;;;;;;;99.00;51.03;;;;;;;;;;2081816;28;20236;-54
2021/03/24 02:32:01;;;;;;;97.13;50.77;;;;;;;;;;2079176;28;20888;-54
2021/03/24 02:33:05;;;;;;;96.83;51.37;;;;;;;;;;2071445;28;20312;-60
2021/03/24 02:34:06;;;;;;;99.20;50.03;;;;;;;;;;2074032;28;20219;-55
2021/03/24 02:35:10;;;;;;;97.10;49.40;;;;;;;;;;2074442;28;20187;-55
2021/03/24 02:36:14;;;;;;;94.97;49.57;;;;;;;;;;2072322;28;20484;-58
2021/03/24 02:37:16;;;;;;;95.03;48.70;;;;;;;;;;2073266;28;20211;-56
2021/03/24 02:38:18;;;;;;;99.63;51.03;;;;;;;;;;2074739;28;20942;-59
2021/03/24 02:39:20;;;;;;;98.23;51.53;;;;;;;;;;2072631;28;20182;-57
2021/03/24 02:40:20;;;;;;;99.80;53.50;;;;;;;;;;2072471;28;20251;-58
2021/03/24 02:41:21;;;;;;;98.67;52.87;;;;;;;;;;2070556;28;20185;-56
2021/03/24 02:42:22;;;;;;;98.20;50.87;;;;;;;;;;2071636;28;20239;-56
2021/03/24 02:43:26;;;;;;;102.70;52.17;;;;;;;;;;2072788;28;20189;-57
2021/03/24 02:44:27;;;;;;;101.10;50.90;;;;;;;;;;2072353;28;20195;-54
2021/03/24 02:45:28;;;;;;;98.43;50.37;;;;;;;;;;2080999;28;20191;-54
2021/03/24 02:46:29;;;;;;;98.77;49.83;;;;;;;;;;2081387;28;20184;-54
2021/03/24 02:47:29;;;;;;;91.63;48.53;;;;;;;;;;2074267;28;20188;-57
2021/03/24 02:48:31;;;;;;;102.27;51.73;;;;;;;;;;2070486;28;20176;-55
2021/03/24 02:49:32;;;;;;;92.83;49.00;;;;;;;;;;2074512;28;20653;-55
2021/03/24 02:50:33;;;;;;;95.33;49.07;;;;;;;;;;2073708;28;20255;-55
2021/03/24 02:51:36;;;;;;;95.33;51.77;;;;;;;;;;2079291;28;20255;-58
2021/03/24 02:52:36;;;;;;;99.60;49.57;;;;;;;;;;2071735;28;20648;-55
2021/03/24 02:53:38;;;;;;;101.20;52.53;;;;;;;;;;2071899;28;20915;-57
2021/03/24 02:54:40;;;;;;;96.90;50.37;;;;;;;;;;2071224;28;20287;-57
2021/03/24 02:55:41;;;;;;;96.47;51.37;;;;;;;;;;2074041;28;20184;-54
2021/03/24 02:56:41;;;;;;;96.73;52.10;;;;;;;;;;2069915;28;20190;-57
2021/03/24 02:57:42;;;;;;;109.50;52.83;;;;;;;;;;2072957;28;20213;-55
2021/03/24 02:58:42;;;;;;;96.13;49.47;;;;;;;;;;2071089;28;20212;-58
2021/03/24 02:59:43;;;;;;;104.97;52.10;;;;;;;;;;2073564;28;20654;-59
2021/03/24 03:00:45;;;;;;;102.93;51.03;;;;;;;;;;2071293;28;20756;-59
2021/03/24 03:01:53;;;;;;;92.43;53.40;;;;;;;;;;2072274;28;20169;-55
2021/03/24 03:03:01;;;;;;;103.93;52.30;;;;;;;;;;2073044;28;20185;-57
2021/03/24 03:04:07;;;;;;;104.57;53.30;;;;;;;;;;2073362;28;20762;-56
2021/03/24 03:05:12;;;;;;;101.67;52.20;;;;;;;;;;2071139;28;20169;-57
2021/03/24 03:06:16;;;;;;;110.53;52.17;;;;;;;;;;2073550;28;20688;-54
2021/03/24 03:07:21;;;;;;;102.77;50.87;;;;;;;;;;2072899;28;20204;-54
2021/03/24 03:08:25;;;;;;;97.83;50.93;;;;;;;;;;2071948;28;20783;-58
2021/03/24 03:09:26;;;;;;;106.37;52.37;;;;;;;;;;2072562;28;20414;-55
2021/03/24 03:10:31;;;;;;;104.13;53.77;;;;;;;;;;2073190;28;20650;-53
2021/03/24 03:11:31;;;;;;;97.90;50.87;;;;;;;;;;2070331;28;20212;-60
2021/03/24 03:12:34;;;;;;;105.13;53.60;;;;;;;;;;2073391;28;20413;-58
2021/03/24 03:13:55;;;;;;;106.10;50.67;;;;;;;;;;2070328;28;20185;-60
2021/03/24 03:15:00;;;;;;;107.47;51.40;;;;;;;;;;2081673;28;20933;-58
2021/03/24 03:16:03;;;;;;;109.57;55.33;;;;;;;;;;2079293;28;20172;-56
2021/03/24 03:17:12;;;;;;;110.40;54.60;;;;;;;;;;2081092;28;20421;-58
2021/03/24 03:18:13;;;;;;;117.13;55.70;;;;;;;;;;2072584;28;20668;-55
2021/03/24 03:19:18;;;;;;;121.37;57.10;;;;;;;;;;2073031;28;20436;-57
2021/03/24 03:20:24;;;;;;;121.83;57.90;;;;;;;;;;2071008;28;20590;-60
2021/03/24 03:21:28;;;;;;;114.37;55.17;;;;;;;;;;2072648;28;21131;-56
2021/03/24 03:22:31;;;;;;;117.00;55.40;;;;;;;;;;2072287;28;20414;-57
2021/03/24 03:23:33;;;;;;;117.17;56.03;;;;;;;;;;2074472;28;20419;-57
2021/03/24 03:24:37;;;;;;;105.77;55.43;;;;;;;;;;2082024;28;20418;-57
2021/03/24 03:25:39;;;;;;;114.33;54.87;;;;;;;;;;2079984;28;20184;-53
2021/03/24 03:26:40;;;;;;;118.03;56.03;;;;;;;;;;2073069;28;20260;-55
2021/03/24 03:27:43;;;;;;;116.43;55.33;;;;;;;;;;2073295;28;20426;-59
2021/03/24 03:28:44;;;;;;;124.97;58.70;;;;;;;;;;2069183;28;20271;-56
2021/03/24 03:29:45;;;;;;;123.77;56.90;;;;;;;;;;2072989;28;20562;-57
2021/03/24 03:30:50;;;;;;;115.57;54.70;;;;;;;;;;2072891;28;20201;-59
2021/03/24 03:31:51;;;;;;;108.70;54.07;;;;;;;;;;2071227;28;20173;-58
2021/03/24 03:32:52;;;;;;;115.13;56.23;;;;;;;;;;2073613;28;20192;-55
2021/03/24 03:33:53;;;;;;;102.40;53.63;;;;;;;;;;2073665;28;20659;-55
2021/03/24 03:34:59;;;;;;;119.87;56.60;;;;;;;;;;2073773;28;20485;-55
2021/03/24 03:35:59;;;;;;;109.43;54.43;;;;;;;;;;2072153;28;20173;-55
2021/03/24 03:37:00;;;;;;;124.77;57.30;;;;;;;;;;2073018;28;20209;-57
2021/03/24 03:38:02;;;;;;;109.03;54.10;;;;;;;;;;2071959;28;20181;-56
2021/03/24 03:39:04;;;;;;;123.40;55.50;;;;;;;;;;2073057;28;20204;-59
2021/03/24 03:40:09;;;;;;;119.40;55.00;;;;;;;;;;2073777;28;20571;-54
2021/03/24 03:41:11;;;;;;;118.70;58.13;;;;;;;;;;2072062;28;20537;-53
2021/03/24 03:42:11;;;;;;;110.27;56.20;;;;;;;;;;2071825;28;20413;-54
2021/03/24 03:43:13;;;;;;;122.57;59.27;;;;;;;;;;2073716;28;20212;-54
2021/03/24 03:44:15;;;;;;;121.70;59.80;;;;;;;;;;2073855;28;20173;-55
2021/03/24 03:45:15;;;;;;;114.17;55.80;;;;;;;;;;2072414;28;20173;-54
2021/03/24 03:46:18;;;;;;;117.83;57.00;;;;;;;;;;2072024;28;20192;-56
2021/03/24 03:47:19;;;;;;;111.20;55.67;;;;;;;;;;2072193;28;20212;-57
2021/03/24 03:48:19;;;;;;;114.50;57.43;;;;;;;;;;2072152;28;20510;-54
2021/03/24 03:49:21;;;;;;;124.53;57.53;;;;;;;;;;2072473;28;20710;-57
2021/03/24 03:50:22;;;;;;;125.83;58.47;;;;;;;;;;2073747;28;20240;-54
2021/03/24 03:51:50;;;;;;;124.47;59.80;;;;;;;;;;2079142;28;20188;-58
2021/03/24 03:52:54;;;;;;;117.03;58.20;;;;;;;;;;2072013;28;20173;-58
2021/03/24 03:53:57;;;;;;;127.00;57.77;;;;;;;;;;2071861;28;20251;-56
2021/03/24 03:55:16;;;;;;;124.23;59.93;;;;;;;;;;2071907;28;20414;-55
2021/03/24 03:56:20;;;;;;;127.20;57.63;;;;;;;;;;2072232;28;20422;-58
2021/03/24 03:57:40;;;;;;;123.50;56.83;;;;;;;;;;2072251;28;20212;-54
2021/03/24 03:59:02;;;;;;;130.27;57.43;;;;;;;;;;2065752;28;20205;-55
2021/03/24 04:00:14;;;;;;;124.57;56.60;;;;;;;;;;2068119;28;20430;-56
2021/03/24 04:01:17;;;;;;;129.03;61.83;;;;;;;;;;2070780;28;20188;-62
2021/03/24 04:02:19;;;;;;;128.60;58.93;;;;;;;;;;2073175;28;20429;-55
2021/03/24 04:03:25;;;;;;;125.93;61.43;;;;;;;;;;2071445;28;20416;-53
2021/03/24 04:04:30;;;;;;;114.53;57.87;;;;;;;;;;2072816;28;20673;-55
2021/03/24 04:05:33;;;;;;;125.10;59.70;;;;;;;;;;2073449;28;20181;-56
2021/03/24 04:06:38;;;;;;;120.47;58.73;;;;;;;;;;2073155;28;20426;-53
2021/03/24 04:07:41;;;;;;;137.97;61.63;;;;;;;;;;2078257;28;20176;-53
2021/03/24 04:08:42;;;;;;;143.43;60.70;;;;;;;;;;2078407;28;20307;-57
2021/03/24 04:09:43;;;;;;;127.23;60.90;;;;;;;;;;2071996;28;20457;-55
2021/03/24 04:10:48;;;;;;;129.17;63.77;;;;;;;;;;2073597;28;20177;-57
2021/03/24 04:11:50;;;;;;;135.33;65.67;;;;;;;;;;2070402;28;20646;-53
2021/03/24 04:12:52;;;;;;;132.13;61.37;;;;;;;;;;2073083;28;20181;-53
2021/03/24 04:13:55;;;;;;;127.70;59.53;;;;;;;;;;2072121;28;20263;-60
2021/03/24 04:14:55;;;;;;;121.87;60.07;;;;;;;;;;2072688;28;20168;-60
2021/03/24 04:15:57;;;;;;;128.37;60.93;;;;;;;;;;2073200;28;20177;-53
2021/03/24 04:16:58;;;;;;;131.07;62.00;;;;;;;;;;2073731;28;20666;-55
2021/03/24 04:18:03;;;;;;;132.47;63.00;;;;;;;;;;2070525;28;20177;-57
2021/03/24 04:19:05;;;;;;;121.37;60.03;;;;;;;;;;2067734;28;20260;-54
2021/03/24 04:20:06;;;;;;;122.63;59.60;;;;;;;;;;2072783;28;20184;-55
2021/03/24 04:21:07;;;;;;;126.27;60.30;;;;;;;;;;2079202;28;20862;-54
2021/03/24 04:22:07;;;;;;;117.27;58.50;;;;;;;;;;2080364;28;20184;-53
2021/03/24 04:23:09;;;;;;;128.17;59.60;;;;;;;;;;2073223;28;20453;-56
2021/03/24 04:24:33;;;;;;;129.43;64.40;;;;;;;;;;2072920;28;20232;-58
2021/03/24 04:25:37;;;;;;;123.50;57.47;;;;;;;;;;2072390;28;20177;-57
2021/03/24 04:26:40;;;;;;;129.67;57.97;;;;;;;;;;2072568;28;20184;-54
2021/03/24 04:27:41;;;;;;;120.70;56.87;;;;;;;;;;2064431;28;20189;-53
2021/03/24 04:28:43;;;;;;;122.37;58.03;;;;;;;;;;2064611;28;20284;-53
2021/03/24 04:29:48;;;;;;;131.50;62.03;;;;;;;;;;2068863;28;20236;-57
2021/03/24 04:30:50;;;;;;;120.70;60.37;;;;;;;;;;2070252;28;20264;-57
2021/03/24 04:31:52;;;;;;;130.50;59.83;;;;;;;;;;2072626;28;20223;-57
2021/03/24 04:32:52;;;;;;;137.33;62.17;;;;;;;;;;2071873;28;20473;-54
2021/03/24 04:33:53;;;;;;;124.93;59.87;;;;;;;;;;2072473;28;20712;-54
2021/03/24 04:34:53;;;;;;;129.03;60.63;;;;;;;;;;2072825;28;20565;-56
2021/03/24 04:35:54;;;;;;;114.73;57.03;;;;;;;;;;2072739;28;20227;-54
2021/03/24 04:37:13;;;;;;;125.57;58.83;;;;;;;;;;2072417;28;20519;-56
2021/03/24 04:38:37;;;;;;;120.97;58.50;;;;;;;;;;2069261;28;20555;-56
2021/03/24 04:39:39;;;;;;;123.17;58.30;;;;;;;;;;2062208;28;20189;-55
2021/03/24 04:40:48;;;;;;;121.20;58.00;;;;;;;;;;2073068;28;20176;-54
2021/03/24 04:41:49;;;;;;;127.40;61.07;;;;;;;;;;2068914;28;20205;-54
2021/03/24 04:42:52;;;;;;;133.63;62.27;;;;;;;;;;2071341;28;20180;-59
2021/03/24 04:44:01;;;;;;;139.30;64.03;;;;;;;;;;2072816;28;20843;-53
2021/03/24 04:45:04;;;;;;;143.30;64.70;;;;;;;;;;2071787;28;20193;-57
2021/03/24 04:46:19;;;;;;;143.13;63.80;;;;;;;;;;2070616;28;20416;-55
2021/03/24 04:47:24;;;;;;;129.43;62.97;;;;;;;;;;2072143;28;20223;-56
2021/03/24 04:48:26;;;;;;;130.00;60.43;;;;;;;;;;2073155;28;20616;-55
2021/03/24 04:49:27;;;;;;;128.17;62.20;;;;;;;;;;2070178;28;20263;-54
2021/03/24 04:50:30;;;;;;;135.70;61.13;;;;;;;;;;2072536;28;20423;-53
2021/03/24 04:51:32;;;;;;;125.20;58.37;;;;;;;;;;2077565;28;20176;-54
2021/03/24 04:52:33;;;;;;;125.00;61.33;;;;;;;;;;2082439;28;20462;-57
2021/03/24 04:53:36;;;;;;;127.57;63.33;;;;;;;;;;2073002;28;20188;-56
2021/03/24 04:54:40;;;;;;;131.20;61.57;;;;;;;;;;2078775;28;20180;-53
2021/03/24 04:55:40;;;;;;;131.97;62.83;;;;;;;;;;2073456;28;20461;-55
2021/03/24 04:56:43;;;;;;;129.73;60.73;;;;;;;;;;2073544;28;20500;-57
2021/03/24 04:57:43;;;;;;;131.33;62.30;;;;;;;;;;2071581;28;20212;-52
2021/03/24 04:58:44;;;;;;;138.00;62.83;;;;;;;;;;2080877;28;20501;-56
2021/03/24 04:59:46;;;;;;;144.63;63.70;;;;;;;;;;2080171;28;20183;-53
2021/03/24 05:00:49;;;;;;;144.47;64.50;;;;;;;;;;2070441;28;20180;-56
2021/03/24 05:01:52;;;;;;;129.40;64.53;;;;;;;;;;2071780;28;20184;-54
2021/03/24 05:02:54;;;;;;;135.60;62.40;;;;;;;;;;2079275;28;20222;-55
2021/03/24 05:03:58;;;;;;;126.93;62.40;;;;;;;;;;2075824;28;20235;-57
2021/03/24 05:05:13;;;;;;;127.90;62.53;;;;;;;;;;2072710;28;20967;-60
2021/03/24 05:06:31;;;;;;;133.27;60.93;;;;;;;;;;2071656;28;20921;-55
2021/03/24 05:07:36;;;;;;;129.20;58.03;;;;;;;;;;2073178;28;20204;-55
2021/03/24 05:08:39;;;;;;;133.80;59.33;;;;;;;;;;2071455;28;20462;-56
2021/03/24 05:09:41;;;;;;;140.13;64.43;;;;;;;;;;2079109;28;20414;-54
2021/03/24 05:10:42;;;;;;;142.13;67.30;;;;;;;;;;2080256;28;20270;-54
2021/03/24 05:11:44;;;;;;;138.60;64.80;;;;;;;;;;2072050;28;20511;-54
2021/03/24 05:12:49;;;;;;;141.43;63.73;;;;;;;;;;2070718;28;20176;-55
2021/03/24 05:13:53;;;;;;;124.57;59.60;;;;;;;;;;2080034;28;20558;-53
2021/03/24 05:15:00;;;;;;;137.97;63.17;;;;;;;;;;2073444;28;20668;-58
2021/03/24 05:16:05;;;;;;;135.70;66.33;;;;;;;;;;2069497;28;20173;-55
2021/03/24 05:17:11;;;;;;;147.23;68.90;;;;;;;;;;2074980;28;20748;-58
2021/03/24 05:18:14;;;;;;;149.90;65.97;;;;;;;;;;2074097;28;20180;-53
2021/03/24 05:19:20;;;;;;;137.67;65.33;;;;;;;;;;2068883;28;20189;-56
2021/03/24 05:20:23;;;;;;;135.30;64.90;;;;;;;;;;2068973;28;20446;-59
2021/03/24 05:21:32;;;;;;;147.57;65.77;;;;;;;;;;2072330;28;20556;-56
2021/03/24 05:22:38;;;;;;;130.23;63.93;;;;;;;;;;2073171;28;20456;-54
2021/03/24 05:23:39;;;;;;;130.17;63.97;;;;;;;;;;2070595;28;20176;-57
2021/03/24 05:24:40;;;;;;;137.30;66.17;;;;;;;;;;2073325;28;20704;-57
2021/03/24 05:25:42;;;;;;;145.73;66.17;;;;;;;;;;2080006;28;20263;-58
2021/03/24 05:26:45;;;;;;;140.43;66.23;;;;;;;;;;2072679;28;20189;-62
2021/03/24 05:27:48;;;;;;;131.43;65.70;;;;;;;;;;2071823;28;20271;-55
2021/03/24 05:28:53;;;;;;;144.73;65.87;;;;;;;;;;2072505;28;20464;-58
2021/03/24 05:29:55;;;;;;;155.70;68.57;;;;;;;;;;2073456;28;20414;-54
2021/03/24 05:31:04;;;;;;;144.00;68.37;;;;;;;;;;2068352;28;20189;-57
2021/03/24 05:32:05;;;;;;;156.70;69.10;;;;;;;;;;2067529;28;20184;-58
2021/03/24 05:33:13;;;;;;;150.67;71.00;;;;;;;;;;2067006;28;20179;-56
2021/03/24 05:34:17;;;;;;;164.37;76.07;;;;;;;;;;2071958;28;20425;-56
2021/03/24 05:35:26;;;;;;;167.07;76.63;;;;;;;;;;2066768;28;20474;-60
2021/03/24 05:36:34;;;;;;;160.50;74.17;;;;;;;;;;2073022;28;20414;-57
2021/03/24 05:37:35;;;;;;;165.40;71.07;;;;;;;;;;2071714;28;20223;-52
2021/03/24 05:38:40;;;;;;;148.27;68.13;;;;;;;;;;2069151;28;20532;-59
2021/03/24 05:39:41;;;;;;;145.57;70.57;;;;;;;;;;2073094;28;20801;-55
2021/03/24 05:40:57;;;;;;;145.20;69.47;;;;;;;;;;2069985;28;20503;-54
2021/03/24 05:42:30;;;;;;;154.37;71.00;;;;;;;;;;2072825;28;20180;-56
2021/03/24 05:43:39;;;;;;;147.50;68.73;;;;;;;;;;2045397;29;20690;-58
2021/03/24 05:44:48;;;;;;;146.80;68.13;;;;;;;;;;2068402;28;20989;-57
2021/03/24 05:45:53;;;;;;;166.07;71.67;;;;;;;;;;2076440;28;20180;-54
2021/03/24 05:47:13;;;;;;;137.47;66.20;;;;;;;;;;2079424;28;20467;-58
2021/03/24 05:48:28;;;;;;;148.40;65.83;;;;;;;;;;2073067;28;20432;-58
2021/03/24 05:49:46;;;;;;;139.87;65.70;;;;;;;;;;2071359;28;20445;-55
2021/03/24 05:50:46;;;;;;;147.03;70.03;;;;;;;;;;2072986;28;20184;-57
2021/03/24 05:52:00;;;;;;;158.60;72.73;;;;;;;;;;2072583;28;20168;-55
2021/03/24 05:53:22;;;;;;;146.63;68.03;;;;;;;;;;2072923;28;20175;-56
2021/03/24 05:54:55;;;;;;;134.73;66.90;;;;;;;;;;2072505;28;20696;-56
2021/03/24 05:55:58;;;;;;;131.13;64.80;;;;;;;;;;2047414;28;20342;-58
2021/03/24 05:56:58;;;;;;;150.13;70.07;;;;;;;;;;2066550;28;20208;-59
2021/03/24 05:58:05;;;;;;;141.43;69.07;;;;;;;;;;2069861;28;20566;-60
2021/03/24 05:59:14;;;;;;;152.17;68.93;;;;;;;;;;2070881;28;20230;-58
2021/03/24 06:00:26;;;;;;;139.33;67.03;;;;;;;;;;2070848;28;20398;-60
2021/03/24 06:01:29;;;;;;;146.67;68.50;;;;;;;;;;2080019;28;20937;-57
2021/03/24 06:02:48;;;;;;;148.00;70.13;;;;;;;;;;2080794;28;20912;-57
2021/03/24 06:03:54;;;;;;;138.23;66.20;;;;;;;;;;2073276;28;20421;-56
2021/03/24 06:04:57;;;;;;;142.20;69.70;;;;;;;;;;2072925;28;20278;-54
2021/03/24 06:06:00;;;;;;;152.87;72.60;;;;;;;;;;2071693;28;20227;-55
2021/03/24 06:07:10;;;;;;;137.67;69.37;;;;;;;;;;2072780;28;20456;-57